sensor_id;sensor_type;location;lat;lon;timestamp;temperature;humidity
38464;DHT22;24243;51.956;5.902;2023-06-14T00:02:31;27.50;32.30
38464;DHT22;24243;51.956;5.902;2023-06-14T00:05:16;27.50;32.30
38464;DHT22;24243;51.956;5.902;2023-06-14T00:08:02;27.50;32.40
38464;DHT22;24243;51.956;5.902;2023-06-14T00:10:50;27.50;32.40
38464;DHT22;24243;51.956;5.902;2023-06-14T00:13:36;27.50;32.40
38464;DHT22;24243;51.956;5.902;2023-06-14T00:16:22;27.50;32.40
38464;DHT22;24243;51.956;5.902;2023-06-14T00:19:08;27.50;32.40
38464;DHT22;24243;51.956;5.902;2023-06-14T00:21:55;27.50;32.40
38464;DHT22;24243;51.956;5.902;2023-06-14T00:24:42;27.50;32.40
38464;DHT22;24243;51.956;5.902;2023-06-14T00:27:27;27.50;32.30
38464;DHT22;24243;51.956;5.902;2023-06-14T00:30:13;27.50;32.30
38464;DHT22;24243;51.956;5.902;2023-06-14T00:32:59;27.50;32.30
38464;DHT22;24243;51.956;5.902;2023-06-14T00:35:45;27.50;32.30
38464;DHT22;24243;51.956;5.902;2023-06-14T00:38:30;27.50;32.40
38464;DHT22;24243;51.956;5.902;2023-06-14T00:41:16;27.50;32.40
38464;DHT22;24243;51.956;5.902;2023-06-14T00:44:02;27.50;32.40
38464;DHT22;24243;51.956;5.902;2023-06-14T00:46:48;27.50;32.40
38464;DHT22;24243;51.956;5.902;2023-06-14T00:49:35;27.50;32.40
38464;DHT22;24243;51.956;5.902;2023-06-14T00:52:21;27.50;32.40
38464;DHT22;24243;51.956;5.902;2023-06-14T00:55:09;27.50;32.40
38464;DHT22;24243;51.956;5.902;2023-06-14T00:57:55;27.50;32.50
38464;DHT22;24243;51.956;5.902;2023-06-14T01:00:41;27.50;32.50
38464;DHT22;24243;51.956;5.902;2023-06-14T01:03:27;27.50;33.10
38464;DHT22;24243;51.956;5.902;2023-06-14T01:06:35;27.50;32.50
38464;DHT22;24243;51.956;5.902;2023-06-14T01:15:13;27.50;32.60
38464;DHT22;24243;51.956;5.902;2023-06-14T01:17:59;27.50;32.70
38464;DHT22;24243;51.956;5.902;2023-06-14T01:20:48;27.50;32.70
38464;DHT22;24243;51.956;5.902;2023-06-14T01:23:34;27.40;32.70
38464;DHT22;24243;51.956;5.902;2023-06-14T01:26:21;27.50;32.80
38464;DHT22;24243;51.956;5.902;2023-06-14T01:29:07;27.40;32.70
38464;DHT22;24243;51.956;5.902;2023-06-14T01:31:54;27.40;32.80
38464;DHT22;24243;51.956;5.902;2023-06-14T01:34:40;27.50;32.80
38464;DHT22;24243;51.956;5.902;2023-06-14T01:37:25;27.40;32.80
38464;DHT22;24243;51.956;5.902;2023-06-14T01:40:12;27.40;32.80
38464;DHT22;24243;51.956;5.902;2023-06-14T01:43:00;27.40;32.80
38464;DHT22;24243;51.956;5.902;2023-06-14T01:45:47;27.40;32.90
38464;DHT22;24243;51.956;5.902;2023-06-14T01:48:34;27.40;32.90
38464;DHT22;24243;51.956;5.902;2023-06-14T01:51:20;27.40;32.90
38464;DHT22;24243;51.956;5.902;2023-06-14T01:54:04;27.40;32.90
38464;DHT22;24243;51.956;5.902;2023-06-14T01:56:50;27.40;32.90
38464;DHT22;24243;51.956;5.902;2023-06-14T01:59:35;27.40;32.90
38464;DHT22;24243;51.956;5.902;2023-06-14T02:02:21;27.40;32.80
38464;DHT22;24243;51.956;5.902;2023-06-14T02:05:07;27.40;32.90
38464;DHT22;24243;51.956;5.902;2023-06-14T02:07:53;27.40;32.90
38464;DHT22;24243;51.956;5.902;2023-06-14T02:10:38;27.40;32.90
38464;DHT22;24243;51.956;5.902;2023-06-14T02:13:24;27.40;32.90
38464;DHT22;24243;51.956;5.902;2023-06-14T02:16:10;27.30;32.90
38464;DHT22;24243;51.956;5.902;2023-06-14T02:18:55;27.40;33.00
38464;DHT22;24243;51.956;5.902;2023-06-14T02:21:42;27.30;32.90
38464;DHT22;24243;51.956;5.902;2023-06-14T02:24:28;27.30;32.90
38464;DHT22;24243;51.956;5.902;2023-06-14T02:27:14;27.30;33.00
38464;DHT22;24243;51.956;5.902;2023-06-14T02:30:00;27.30;33.00
38464;DHT22;24243;51.956;5.902;2023-06-14T02:32:46;27.30;33.00
38464;DHT22;24243;51.956;5.902;2023-06-14T02:35:34;27.30;33.00
38464;DHT22;24243;51.956;5.902;2023-06-14T02:38:20;27.30;33.00
38464;DHT22;24243;51.956;5.902;2023-06-14T02:41:06;27.30;33.10
38464;DHT22;24243;51.956;5.902;2023-06-14T02:43:52;27.30;33.10
38464;DHT22;24243;51.956;5.902;2023-06-14T02:46:38;27.30;33.10
38464;DHT22;24243;51.956;5.902;2023-06-14T02:49:23;27.30;33.10
38464;DHT22;24243;51.956;5.902;2023-06-14T02:52:09;27.30;33.10
38464;DHT22;24243;51.956;5.902;2023-06-14T02:54:55;27.30;33.10
38464;DHT22;24243;51.956;5.902;2023-06-14T02:57:41;27.30;33.20
38464;DHT22;24243;51.956;5.902;2023-06-14T03:00:26;27.30;33.10
38464;DHT22;24243;51.956;5.902;2023-06-14T03:03:16;27.30;33.20
38464;DHT22;24243;51.956;5.902;2023-06-14T03:06:01;27.30;33.20
38464;DHT22;24243;51.956;5.902;2023-06-14T03:08:49;27.30;33.20
38464;DHT22;24243;51.956;5.902;2023-06-14T03:11:35;27.30;33.20
38464;DHT22;24243;51.956;5.902;2023-06-14T03:14:21;27.30;33.20
38464;DHT22;24243;51.956;5.902;2023-06-14T03:17:06;27.20;33.20
38464;DHT22;24243;51.956;5.902;2023-06-14T03:19:53;27.30;33.20
38464;DHT22;24243;51.956;5.902;2023-06-14T03:22:39;27.30;33.30
38464;DHT22;24243;51.956;5.902;2023-06-14T03:25:24;27.30;33.30
38464;DHT22;24243;51.956;5.902;2023-06-14T03:28:11;27.30;33.30
38464;DHT22;24243;51.956;5.902;2023-06-14T03:30:56;27.30;33.30
38464;DHT22;24243;51.956;5.902;2023-06-14T03:33:42;27.20;33.30
38464;DHT22;24243;51.956;5.902;2023-06-14T03:36:28;27.30;33.30
38464;DHT22;24243;51.956;5.902;2023-06-14T03:39:13;27.20;33.30
38464;DHT22;24243;51.956;5.902;2023-06-14T03:41:59;27.20;33.30
38464;DHT22;24243;51.956;5.902;2023-06-14T03:44:45;27.20;33.40
38464;DHT22;24243;51.956;5.902;2023-06-14T03:47:30;27.20;33.40
38464;DHT22;24243;51.956;5.902;2023-06-14T03:50:17;27.20;33.40
38464;DHT22;24243;51.956;5.902;2023-06-14T03:53:04;27.20;33.40
38464;DHT22;24243;51.956;5.902;2023-06-14T03:55:50;27.20;33.40
38464;DHT22;24243;51.956;5.902;2023-06-14T03:58:37;27.20;33.40
38464;DHT22;24243;51.956;5.902;2023-06-14T04:01:23;27.20;33.40
38464;DHT22;24243;51.956;5.902;2023-06-14T04:04:14;27.20;33.40
38464;DHT22;24243;51.956;5.902;2023-06-14T04:07:02;27.20;33.40
38464;DHT22;24243;51.956;5.902;2023-06-14T04:09:48;27.20;33.50
38464;DHT22;24243;51.956;5.902;2023-06-14T04:12:34;27.20;33.40
38464;DHT22;24243;51.956;5.902;2023-06-14T04:15:19;27.20;33.40
38464;DHT22;24243;51.956;5.902;2023-06-14T04:18:05;27.20;33.40
38464;DHT22;24243;51.956;5.902;2023-06-14T04:20:51;27.20;33.40
38464;DHT22;24243;51.956;5.902;2023-06-14T04:23:36;27.10;32.90
38464;DHT22;24243;51.956;5.902;2023-06-14T04:26:23;27.00;32.70
38464;DHT22;24243;51.956;5.902;2023-06-14T04:29:09;26.80;32.60
38464;DHT22;24243;51.956;5.902;2023-06-14T04:31:55;26.60;32.50
38464;DHT22;24243;51.956;5.902;2023-06-14T04:34:44;26.50;32.60
38464;DHT22;24243;51.956;5.902;2023-06-14T04:37:29;26.40;32.70
38464;DHT22;24243;51.956;5.902;2023-06-14T04:40:15;26.30;32.70
38464;DHT22;24243;51.956;5.902;2023-06-14T04:43:01;26.10;32.70
38464;DHT22;24243;51.956;5.902;2023-06-14T04:45:50;26.00;32.90
38464;DHT22;24243;51.956;5.902;2023-06-14T04:48:39;25.90;33.00
38464;DHT22;24243;51.956;5.902;2023-06-14T04:51:26;25.80;33.20
38464;DHT22;24243;51.956;5.902;2023-06-14T04:54:15;25.70;33.30
38464;DHT22;24243;51.956;5.902;2023-06-14T04:57:00;25.60;33.40
38464;DHT22;24243;51.956;5.902;2023-06-14T04:59:46;25.50;33.50
38464;DHT22;24243;51.956;5.902;2023-06-14T05:02:32;25.50;33.60
38464;DHT22;24243;51.956;5.902;2023-06-14T05:05:17;25.40;33.60
38464;DHT22;24243;51.956;5.902;2023-06-14T05:08:03;25.40;33.80
38464;DHT22;24243;51.956;5.902;2023-06-14T05:10:49;25.40;33.90
38464;DHT22;24243;51.956;5.902;2023-06-14T05:13:35;25.30;33.90
38464;DHT22;24243;51.956;5.902;2023-06-14T05:16:21;25.30;34.00
38464;DHT22;24243;51.956;5.902;2023-06-14T05:19:09;25.20;34.10
38464;DHT22;24243;51.956;5.902;2023-06-14T05:21:55;25.20;34.20
38464;DHT22;24243;51.956;5.902;2023-06-14T05:24:41;25.20;34.30
38464;DHT22;24243;51.956;5.902;2023-06-14T05:27:27;25.20;34.40
38464;DHT22;24243;51.956;5.902;2023-06-14T05:30:14;25.20;34.50
38464;DHT22;24243;51.956;5.902;2023-06-14T05:33:00;25.10;34.40
38464;DHT22;24243;51.956;5.902;2023-06-14T05:35:45;25.10;34.50
38464;DHT22;24243;51.956;5.902;2023-06-14T05:38:32;25.10;34.60
38464;DHT22;24243;51.956;5.902;2023-06-14T05:41:17;25.10;34.60
38464;DHT22;24243;51.956;5.902;2023-06-14T05:44:03;25.10;34.60
38464;DHT22;24243;51.956;5.902;2023-06-14T05:46:49;25.10;34.70
38464;DHT22;24243;51.956;5.902;2023-06-14T05:49:35;25.10;34.70
38464;DHT22;24243;51.956;5.902;2023-06-14T05:52:20;25.10;34.80
38464;DHT22;24243;51.956;5.902;2023-06-14T05:55:06;25.10;34.80
38464;DHT22;24243;51.956;5.902;2023-06-14T05:57:52;25.10;34.90
38464;DHT22;24243;51.956;5.902;2023-06-14T06:00:38;25.20;35.00
38464;DHT22;24243;51.956;5.902;2023-06-14T06:03:23;25.20;35.00
38464;DHT22;24243;51.956;5.902;2023-06-14T06:06:09;25.20;35.10
38464;DHT22;24243;51.956;5.902;2023-06-14T06:08:55;25.20;35.10
38464;DHT22;24243;51.956;5.902;2023-06-14T06:11:41;25.20;35.20
38464;DHT22;24243;51.956;5.902;2023-06-14T06:14:26;25.20;35.20
38464;DHT22;24243;51.956;5.902;2023-06-14T06:17:12;25.30;35.30
38464;DHT22;24243;51.956;5.902;2023-06-14T06:19:58;25.30;35.30
38464;DHT22;24243;51.956;5.902;2023-06-14T06:22:44;25.30;35.40
38464;DHT22;24243;51.956;5.902;2023-06-14T06:25:29;25.30;35.30
38464;DHT22;24243;51.956;5.902;2023-06-14T06:28:17;25.40;35.50
38464;DHT22;24243;51.956;5.902;2023-06-14T06:31:02;25.40;35.50
38464;DHT22;24243;51.956;5.902;2023-06-14T06:33:48;25.40;35.50
38464;DHT22;24243;51.956;5.902;2023-06-14T06:36:34;25.40;35.50
38464;DHT22;24243;51.956;5.902;2023-06-14T06:39:20;25.50;35.50
38464;DHT22;24243;51.956;5.902;2023-06-14T06:42:06;25.50;35.40
38464;DHT22;24243;51.956;5.902;2023-06-14T06:44:52;25.50;36.00
38464;DHT22;24243;51.956;5.902;2023-06-14T06:47:37;25.50;35.30
38464;DHT22;24243;51.956;5.902;2023-06-14T06:50:23;25.60;35.40
38464;DHT22;24243;51.956;5.902;2023-06-14T06:53:10;25.60;35.40
38464;DHT22;24243;51.956;5.902;2023-06-14T06:55:56;25.60;35.30
38464;DHT22;24243;51.956;5.902;2023-06-14T06:58:41;25.60;35.20
38464;DHT22;24243;51.956;5.902;2023-06-14T07:01:27;25.70;35.90
38464;DHT22;24243;51.956;5.902;2023-06-14T07:04:14;25.70;35.20
38464;DHT22;24243;51.956;5.902;2023-06-14T07:07:00;25.70;35.20
38464;DHT22;24243;51.956;5.902;2023-06-14T07:09:46;25.70;35.20
38464;DHT22;24243;51.956;5.902;2023-06-14T07:12:31;25.80;35.30
38464;DHT22;24243;51.956;5.902;2023-06-14T07:15:19;25.80;35.20
38464;DHT22;24243;51.956;5.902;2023-06-14T07:18:05;25.80;35.20
38464;DHT22;24243;51.956;5.902;2023-06-14T07:20:53;25.90;35.20
38464;DHT22;24243;51.956;5.902;2023-06-14T07:23:39;25.90;35.20
38464;DHT22;24243;51.956;5.902;2023-06-14T07:26:25;25.90;35.20
38464;DHT22;24243;51.956;5.902;2023-06-14T07:29:10;25.90;35.20
38464;DHT22;24243;51.956;5.902;2023-06-14T07:31:56;26.00;35.20
38464;DHT22;24243;51.956;5.902;2023-06-14T07:34:41;26.00;35.10
38464;DHT22;24243;51.956;5.902;2023-06-14T07:37:27;26.00;35.10
38464;DHT22;24243;51.956;5.902;2023-06-14T07:40:13;26.10;35.10
38464;DHT22;24243;51.956;5.902;2023-06-14T07:42:59;26.10;34.90
38464;DHT22;24243;51.956;5.902;2023-06-14T07:45:45;26.10;34.80
38464;DHT22;24243;51.956;5.902;2023-06-14T07:48:32;26.20;34.80
38464;DHT22;24243;51.956;5.902;2023-06-14T07:51:17;26.20;34.70
38464;DHT22;24243;51.956;5.902;2023-06-14T07:54:03;26.20;35.30
38464;DHT22;24243;51.956;5.902;2023-06-14T07:56:49;26.20;34.60
38464;DHT22;24243;51.956;5.902;2023-06-14T07:59:35;26.20;34.60
38464;DHT22;24243;51.956;5.902;2023-06-14T08:02:21;26.30;34.60
38464;DHT22;24243;51.956;5.902;2023-06-14T08:05:09;26.30;34.40
38464;DHT22;24243;51.956;5.902;2023-06-14T08:07:55;26.40;34.20
38464;DHT22;24243;51.956;5.902;2023-06-14T08:10:41;26.40;34.00
38464;DHT22;24243;51.956;5.902;2023-06-14T08:13:26;26.40;33.80
38464;DHT22;24243;51.956;5.902;2023-06-14T08:16:12;26.40;33.90
38464;DHT22;24243;51.956;5.902;2023-06-14T08:18:58;26.40;33.80
38464;DHT22;24243;51.956;5.902;2023-06-14T08:21:43;26.40;33.60
38464;DHT22;24243;51.956;5.902;2023-06-14T08:24:29;26.40;33.40
38464;DHT22;24243;51.956;5.902;2023-06-14T08:27:15;26.50;33.20
38464;DHT22;24243;51.956;5.902;2023-06-14T08:30:01;26.50;33.20
38464;DHT22;24243;51.956;5.902;2023-06-14T08:32:48;26.50;33.20
38464;DHT22;24243;51.956;5.902;2023-06-14T08:35:33;26.50;33.10
38464;DHT22;24243;51.956;5.902;2023-06-14T08:38:22;26.60;33.10
38464;DHT22;24243;51.956;5.902;2023-06-14T08:41:08;26.60;33.20
38464;DHT22;24243;51.956;5.902;2023-06-14T08:43:57;26.60;33.30
38464;DHT22;24243;51.956;5.902;2023-06-14T08:46:43;26.60;33.30
38464;DHT22;24243;51.956;5.902;2023-06-14T08:49:29;26.60;33.10
38464;DHT22;24243;51.956;5.902;2023-06-14T08:52:19;26.60;33.60
38464;DHT22;24243;51.956;5.902;2023-06-14T08:55:07;26.70;32.80
38464;DHT22;24243;51.956;5.902;2023-06-14T08:57:55;26.70;32.70
38464;DHT22;24243;51.956;5.902;2023-06-14T09:00:43;26.70;32.70
38464;DHT22;24243;51.956;5.902;2023-06-14T09:03:30;26.70;32.70
38464;DHT22;24243;51.956;5.902;2023-06-14T09:06:16;26.80;32.50
38464;DHT22;24243;51.956;5.902;2023-06-14T09:09:04;26.80;32.50
38464;DHT22;24243;51.956;5.902;2023-06-14T09:11:52;26.80;33.20
38464;DHT22;24243;51.956;5.902;2023-06-14T09:14:38;26.80;32.50
38464;DHT22;24243;51.956;5.902;2023-06-14T09:17:26;26.80;32.50
38464;DHT22;24243;51.956;5.902;2023-06-14T09:20:12;26.80;32.40
38464;DHT22;24243;51.956;5.902;2023-06-14T09:23:04;26.90;32.40
38464;DHT22;24243;51.956;5.902;2023-06-14T09:25:50;26.90;32.40
38464;DHT22;24243;51.956;5.902;2023-06-14T09:28:41;26.90;32.50
38464;DHT22;24243;51.956;5.902;2023-06-14T09:31:26;26.90;33.30
38464;DHT22;24243;51.956;5.902;2023-06-14T09:34:17;26.90;32.50
38464;DHT22;24243;51.956;5.902;2023-06-14T09:37:05;26.90;32.40
38464;DHT22;24243;51.956;5.902;2023-06-14T09:39:51;27.00;32.30
38464;DHT22;24243;51.956;5.902;2023-06-14T09:42:37;27.00;32.40
38464;DHT22;24243;51.956;5.902;2023-06-14T09:45:23;27.00;32.50
38464;DHT22;24243;51.956;5.902;2023-06-14T09:48:10;27.00;32.50
38464;DHT22;24243;51.956;5.902;2023-06-14T09:50:57;27.00;32.50
38464;DHT22;24243;51.956;5.902;2023-06-14T09:53:44;27.00;32.30
38464;DHT22;24243;51.956;5.902;2023-06-14T09:56:37;27.10;32.40
38464;DHT22;24243;51.956;5.902;2023-06-14T09:59:26;27.10;32.30
38464;DHT22;24243;51.956;5.902;2023-06-14T10:02:26;27.10;32.40
38464;DHT22;24243;51.956;5.902;2023-06-14T10:05:14;27.10;32.40
38464;DHT22;24243;51.956;5.902;2023-06-14T10:08:04;27.10;32.40
38464;DHT22;24243;51.956;5.902;2023-06-14T10:10:55;27.10;32.40
38464;DHT22;24243;51.956;5.902;2023-06-14T10:13:40;27.10;32.40
38464;DHT22;24243;51.956;5.902;2023-06-14T10:16:44;27.10;32.30
38464;DHT22;24243;51.956;5.902;2023-06-14T10:22:52;27.20;32.10
38464;DHT22;24243;51.956;5.902;2023-06-14T10:25:42;27.10;32.00
38464;DHT22;24243;51.956;5.902;2023-06-14T10:28:28;27.20;32.10
38464;DHT22;24243;51.956;5.902;2023-06-14T10:31:16;27.20;32.00
38464;DHT22;24243;51.956;5.902;2023-06-14T10:34:02;27.20;32.60
38464;DHT22;24243;51.956;5.902;2023-06-14T10:37:00;27.20;31.90
38464;DHT22;24243;51.956;5.902;2023-06-14T10:39:47;27.20;31.70
38464;DHT22;24243;51.956;5.902;2023-06-14T10:42:33;27.20;31.70
38464;DHT22;24243;51.956;5.902;2023-06-14T10:45:18;27.20;31.70
38464;DHT22;24243;51.956;5.902;2023-06-14T10:48:04;27.20;31.60
38464;DHT22;24243;51.956;5.902;2023-06-14T10:51:00;27.20;31.70
38464;DHT22;24243;51.956;5.902;2023-06-14T10:53:50;27.20;31.60
38464;DHT22;24243;51.956;5.902;2023-06-14T10:56:36;27.20;31.60
38464;DHT22;24243;51.956;5.902;2023-06-14T10:59:22;27.20;31.50
38464;DHT22;24243;51.956;5.902;2023-06-14T11:05:08;27.20;31.10
38464;DHT22;24243;51.956;5.902;2023-06-14T11:08:27;27.20;31.20
38464;DHT22;24243;51.956;5.902;2023-06-14T11:11:13;27.20;31.20
38464;DHT22;24243;51.956;5.902;2023-06-14T11:14:00;27.20;31.30
38464;DHT22;24243;51.956;5.902;2023-06-14T11:16:49;27.20;31.30
38464;DHT22;24243;51.956;5.902;2023-06-14T11:19:35;27.20;31.30
38464;DHT22;24243;51.956;5.902;2023-06-14T11:22:21;27.30;31.40
38464;DHT22;24243;51.956;5.902;2023-06-14T11:25:09;27.30;31.30
38464;DHT22;24243;51.956;5.902;2023-06-14T11:27:56;27.30;31.40
38464;DHT22;24243;51.956;5.902;2023-06-14T11:30:42;27.30;31.30
38464;DHT22;24243;51.956;5.902;2023-06-14T11:33:28;27.30;31.30
38464;DHT22;24243;51.956;5.902;2023-06-14T11:36:14;27.30;31.30
38464;DHT22;24243;51.956;5.902;2023-06-14T11:39:05;27.30;31.40
38464;DHT22;24243;51.956;5.902;2023-06-14T11:41:54;27.30;31.30
38464;DHT22;24243;51.956;5.902;2023-06-14T11:44:40;27.30;31.40
38464;DHT22;24243;51.956;5.902;2023-06-14T11:47:31;27.30;31.40
38464;DHT22;24243;51.956;5.902;2023-06-14T11:50:18;27.30;31.20
38464;DHT22;24243;51.956;5.902;2023-06-14T11:53:03;27.30;31.30
38464;DHT22;24243;51.956;5.902;2023-06-14T11:55:52;27.30;31.30
38464;DHT22;24243;51.956;5.902;2023-06-14T11:58:38;27.30;31.30
38464;DHT22;24243;51.956;5.902;2023-06-14T12:01:24;27.30;31.30
38464;DHT22;24243;51.956;5.902;2023-06-14T12:04:11;27.40;31.30
38464;DHT22;24243;51.956;5.902;2023-06-14T12:06:56;27.30;31.40
38464;DHT22;24243;51.956;5.902;2023-06-14T12:10:03;27.30;31.00
38464;DHT22;24243;51.956;5.902;2023-06-14T12:12:59;27.40;31.10
38464;DHT22;24243;51.956;5.902;2023-06-14T12:15:45;27.40;31.20
38464;DHT22;24243;51.956;5.902;2023-06-14T12:18:40;27.40;31.30
38464;DHT22;24243;51.956;5.902;2023-06-14T12:21:26;27.40;31.40
38464;DHT22;24243;51.956;5.902;2023-06-14T12:24:13;27.40;31.30
38464;DHT22;24243;51.956;5.902;2023-06-14T12:26:59;27.40;31.40
38464;DHT22;24243;51.956;5.902;2023-06-14T12:29:45;27.40;31.50
38464;DHT22;24243;51.956;5.902;2023-06-14T12:32:31;27.40;31.70
38464;DHT22;24243;51.956;5.902;2023-06-14T12:35:17;27.40;31.80
38464;DHT22;24243;51.956;5.902;2023-06-14T12:38:03;27.40;31.90
38464;DHT22;24243;51.956;5.902;2023-06-14T12:40:49;27.40;32.00
38464;DHT22;24243;51.956;5.902;2023-06-14T12:43:35;27.40;31.90
38464;DHT22;24243;51.956;5.902;2023-06-14T12:46:21;27.50;32.00
38464;DHT22;24243;51.956;5.902;2023-06-14T12:49:09;27.50;31.90
38464;DHT22;24243;51.956;5.902;2023-06-14T12:51:55;27.50;32.00
38464;DHT22;24243;51.956;5.902;2023-06-14T12:54:40;27.50;32.00
38464;DHT22;24243;51.956;5.902;2023-06-14T12:57:26;27.50;32.00
38464;DHT22;24243;51.956;5.902;2023-06-14T13:00:12;27.50;32.10
38464;DHT22;24243;51.956;5.902;2023-06-14T13:02:58;27.50;32.20
38464;DHT22;24243;51.956;5.902;2023-06-14T13:05:44;27.50;32.10
38464;DHT22;24243;51.956;5.902;2023-06-14T13:08:30;27.50;32.10
38464;DHT22;24243;51.956;5.902;2023-06-14T13:11:16;27.50;32.00
38464;DHT22;24243;51.956;5.902;2023-06-14T13:14:02;27.50;31.90
38464;DHT22;24243;51.956;5.902;2023-06-14T13:16:48;27.50;31.70
38464;DHT22;24243;51.956;5.902;2023-06-14T13:19:36;27.50;31.50
38464;DHT22;24243;51.956;5.902;2023-06-14T13:22:21;27.50;31.40
38464;DHT22;24243;51.956;5.902;2023-06-14T13:25:07;27.50;31.30
38464;DHT22;24243;51.956;5.902;2023-06-14T13:27:53;27.50;31.30
38464;DHT22;24243;51.956;5.902;2023-06-14T13:30:39;27.50;31.20
38464;DHT22;24243;51.956;5.902;2023-06-14T13:33:25;27.50;31.10
38464;DHT22;24243;51.956;5.902;2023-06-14T13:36:10;27.50;31.10
38464;DHT22;24243;51.956;5.902;2023-06-14T13:38:56;27.50;31.70
38464;DHT22;24243;51.956;5.902;2023-06-14T13:41:44;27.50;31.00
38464;DHT22;24243;51.956;5.902;2023-06-14T13:44:29;27.50;31.00
38464;DHT22;24243;51.956;5.902;2023-06-14T13:47:15;27.50;31.00
38464;DHT22;24243;51.956;5.902;2023-06-14T13:50:02;27.50;31.00
38464;DHT22;24243;51.956;5.902;2023-06-14T13:52:48;27.50;31.00
38464;DHT22;24243;51.956;5.902;2023-06-14T13:55:34;27.50;30.80
38464;DHT22;24243;51.956;5.902;2023-06-14T13:58:19;27.50;31.30
38464;DHT22;24243;51.956;5.902;2023-06-14T14:01:05;27.50;30.60
38464;DHT22;24243;51.956;5.902;2023-06-14T14:03:51;27.50;30.60
38464;DHT22;24243;51.956;5.902;2023-06-14T14:06:37;27.50;30.70
38464;DHT22;24243;51.956;5.902;2023-06-14T14:09:22;27.50;30.80
38464;DHT22;24243;51.956;5.902;2023-06-14T14:12:08;27.50;30.80
38464;DHT22;24243;51.956;5.902;2023-06-14T14:14:54;27.50;31.00
38464;DHT22;24243;51.956;5.902;2023-06-14T14:17:39;27.50;31.00
38464;DHT22;24243;51.956;5.902;2023-06-14T14:20:24;27.50;31.00
38464;DHT22;24243;51.956;5.902;2023-06-14T14:23:10;27.50;31.10
38464;DHT22;24243;51.956;5.902;2023-06-14T14:25:56;27.50;31.10
38464;DHT22;24243;51.956;5.902;2023-06-14T14:28:42;27.50;31.20
38464;DHT22;24243;51.956;5.902;2023-06-14T14:31:26;27.50;31.30
38464;DHT22;24243;51.956;5.902;2023-06-14T14:34:12;27.50;31.20
38464;DHT22;24243;51.956;5.902;2023-06-14T14:36:58;27.50;31.20
38464;DHT22;24243;51.956;5.902;2023-06-14T14:39:47;27.50;31.20
38464;DHT22;24243;51.956;5.902;2023-06-14T14:42:32;27.50;31.10
38464;DHT22;24243;51.956;5.902;2023-06-14T14:45:21;27.50;31.10
38464;DHT22;24243;51.956;5.902;2023-06-14T14:48:25;27.50;31.20
38464;DHT22;24243;51.956;5.902;2023-06-14T14:51:09;27.50;31.30
38464;DHT22;24243;51.956;5.902;2023-06-14T14:53:54;27.50;31.30
38464;DHT22;24243;51.956;5.902;2023-06-14T14:56:49;27.60;31.30
38464;DHT22;24243;51.956;5.902;2023-06-14T14:59:34;27.50;31.30
38464;DHT22;24243;51.956;5.902;2023-06-14T15:02:20;27.50;31.30
38464;DHT22;24243;51.956;5.902;2023-06-14T15:05:06;27.50;31.30
38464;DHT22;24243;51.956;5.902;2023-06-14T15:07:52;27.50;31.20
38464;DHT22;24243;51.956;5.902;2023-06-14T15:10:39;27.50;31.30
38464;DHT22;24243;51.956;5.902;2023-06-14T15:13:26;27.50;31.20
38464;DHT22;24243;51.956;5.902;2023-06-14T15:16:13;27.50;31.20
38464;DHT22;24243;51.956;5.902;2023-06-14T15:18:59;27.50;31.30
38464;DHT22;24243;51.956;5.902;2023-06-14T15:21:45;27.50;31.30
38464;DHT22;24243;51.956;5.902;2023-06-14T15:24:30;27.60;31.40
38464;DHT22;24243;51.956;5.902;2023-06-14T15:27:18;27.50;31.30
38464;DHT22;24243;51.956;5.902;2023-06-14T15:30:04;27.50;31.30
38464;DHT22;24243;51.956;5.902;2023-06-14T15:32:50;27.50;31.30
38464;DHT22;24243;51.956;5.902;2023-06-14T15:35:36;27.50;31.30
38464;DHT22;24243;51.956;5.902;2023-06-14T15:38:21;27.50;31.30
38464;DHT22;24243;51.956;5.902;2023-06-14T15:41:07;27.50;31.20
38464;DHT22;24243;51.956;5.902;2023-06-14T15:43:53;27.50;31.10
38464;DHT22;24243;51.956;5.902;2023-06-14T15:46:39;27.50;31.60
38464;DHT22;24243;51.956;5.902;2023-06-14T15:49:25;27.50;30.90
38464;DHT22;24243;51.956;5.902;2023-06-14T15:52:11;27.50;30.80
38464;DHT22;24243;51.956;5.902;2023-06-14T15:54:57;27.50;30.70
38464;DHT22;24243;51.956;5.902;2023-06-14T15:57:42;27.50;30.80
38464;DHT22;24243;51.956;5.902;2023-06-14T16:00:28;27.40;30.80
38464;DHT22;24243;51.956;5.902;2023-06-14T16:03:14;27.50;30.90
38464;DHT22;24243;51.956;5.902;2023-06-14T16:05:59;27.50;31.00
38464;DHT22;24243;51.956;5.902;2023-06-14T16:08:45;27.50;31.60
38464;DHT22;24243;51.956;5.902;2023-06-14T16:11:31;27.50;31.00
38464;DHT22;24243;51.956;5.902;2023-06-14T16:14:16;27.40;31.00
38464;DHT22;24243;51.956;5.902;2023-06-14T16:17:02;27.40;31.00
38464;DHT22;24243;51.956;5.902;2023-06-14T16:19:48;27.50;31.10
38464;DHT22;24243;51.956;5.902;2023-06-14T16:22:34;27.50;31.10
38464;DHT22;24243;51.956;5.902;2023-06-14T16:25:20;27.50;31.00
38464;DHT22;24243;51.956;5.902;2023-06-14T16:28:06;27.50;31.00
38464;DHT22;24243;51.956;5.902;2023-06-14T16:30:52;27.50;31.00
38464;DHT22;24243;51.956;5.902;2023-06-14T16:33:38;27.50;31.10
38464;DHT22;24243;51.956;5.902;2023-06-14T16:36:24;27.40;31.00
38464;DHT22;24243;51.956;5.902;2023-06-14T16:39:10;27.50;31.20
38464;DHT22;24243;51.956;5.902;2023-06-14T16:41:57;27.50;31.30
38464;DHT22;24243;51.956;5.902;2023-06-14T16:44:42;27.50;31.30
38464;DHT22;24243;51.956;5.902;2023-06-14T16:47:28;27.50;31.30
38464;DHT22;24243;51.956;5.902;2023-06-14T16:50:14;27.50;31.10
38464;DHT22;24243;51.956;5.902;2023-06-14T16:52:59;27.50;31.10
38464;DHT22;24243;51.956;5.902;2023-06-14T16:55:45;27.50;31.00
38464;DHT22;24243;51.956;5.902;2023-06-14T16:58:31;27.50;31.00
38464;DHT22;24243;51.956;5.902;2023-06-14T17:01:17;27.50;31.00
38464;DHT22;24243;51.956;5.902;2023-06-14T17:04:02;27.50;31.00
38464;DHT22;24243;51.956;5.902;2023-06-14T17:06:48;27.50;31.00
38464;DHT22;24243;51.956;5.902;2023-06-14T17:09:37;27.50;31.00
38464;DHT22;24243;51.956;5.902;2023-06-14T17:12:23;27.50;31.00
38464;DHT22;24243;51.956;5.902;2023-06-14T17:15:09;27.50;31.10
38464;DHT22;24243;51.956;5.902;2023-06-14T17:17:55;27.50;31.10
38464;DHT22;24243;51.956;5.902;2023-06-14T17:20:41;27.50;31.10
38464;DHT22;24243;51.956;5.902;2023-06-14T17:23:26;27.50;31.20
38464;DHT22;24243;51.956;5.902;2023-06-14T17:26:12;27.50;31.20
38464;DHT22;24243;51.956;5.902;2023-06-14T17:28:58;27.50;31.20
38464;DHT22;24243;51.956;5.902;2023-06-14T17:31:44;27.50;31.20
38464;DHT22;24243;51.956;5.902;2023-06-14T17:34:30;27.50;31.30
38464;DHT22;24243;51.956;5.902;2023-06-14T17:37:15;27.50;31.30
38464;DHT22;24243;51.956;5.902;2023-06-14T17:40:01;27.50;31.40
38464;DHT22;24243;51.956;5.902;2023-06-14T17:42:47;27.50;31.50
38464;DHT22;24243;51.956;5.902;2023-06-14T17:45:32;27.50;31.60